Kilmore Gap, Victoria

9:01 PM AEDT on March 29, 2015 (GMT +1100)
Hidden Valley, Wallan | | Change Station
CLOSE
Current Station
Personal Weather Station
Location: Wallan, VICTORIA
Elevation: 1158 ft
Nearby Weather Stations

Elev 1158 ft 37.40 °S, 145.01 °E | Updated 5 minutes ago

Clear
Clear
59.9 °F
Feels Like 59.9 °F
N
2.0
Wind Variable Wind from East
Gusts 3.0 mph

Today
High -- | Low -- °F
--% Chance of Precip.
Yesterday
High -- | Low -- °F
Precip. -- in
7:30 AM 7:19 PM
Waxing Gibbous, 70% visible
Pressure 30.21 in
Visibility -9999.0 miles
Clouds
Dew Point 48 °F
Humidity 65%
Rainfall 0.00 in
Snow Depth Not available.
UV 0.0 out of 12
Pollen Not available.
Air Quality Not available.
Flu Activity Not available.
METAR YMML 290930Z 19008KT CAVOK 16/10 Q1023 NOSIG

More Conditions Fewer Conditions

Pressure 30.21 in
Visibility -9999.0 miles
Clouds
Dew Point 48 °F
Humidity 65%
Rainfall 0.00 in
Snow Depth Not available.
UV 0.0 out of 12
Pollen Not available.
Air Quality Not available.
Flu Activity Not available.
METAR YMML 290930Z 19008KT CAVOK 16/10 Q1023 NOSIG

More Conditions Fewer Conditions

10-Day Weather Forecast

Almanac

Astronomy

Mar. 29, 2015 Rise Set
Actual Time
Civil Twilight
Nautical Twilight
Astronomical Twilight
Moon
Length of Visible Light
Length of Day
Tomorrow will be .
, % of the Moon is Illuminated

Today's Extremes

Country Highs Country Lows

Community

WunderPhotos

Upload Photos

1,809,204 photos uploaded!

WunderBlogs® & News

Nearby

Air Quality

  Air Quality AQ Index Pollutant
Not available.

Snow Depth

Station Depth Elevation

Earthquake Activity

City Distance Mag. Time & Date
Minimum magnitude displayed is 2.5.

Coastal Water Temperatures

Place Temperature

Stations

Nearby Weather Stations

Station Location Temp. Windchill Dew Point Humidity Wind Precip. Elev Updated Type